Time;durP1;ratioP1;P1;durP2;ratioP2;P2;SDS_P1;SDS_P2;PMS_P1;PMS_P2;Temp;Humidity;BMP_temperature;BMP_pressure;BME280_temperature;BME280_humidity;BME280_pressure;Samples;Min_cycle;Max_cycle;Signal;HPM_P1;HPM_P2
2022/07/07 00:00:54;;;;;;;3.97;2.13;;;14.60;98.10;;;;;;5062399;28;20404;-66
2022/07/07 00:03:20;;;;;;;;;;;14.60;97.80;;;;;;5071553;28;20040;-66
2022/07/07 00:05:45;;;;;;;5.88;2.63;;;14.60;98.00;;;;;;5067696;28;20419;-66
2022/07/07 00:08:11;;;;;;;;;;;14.60;97.90;;;;;;5070618;28;20407;-65
2022/07/07 00:10:36;;;;;;;8.60;1.90;;;14.60;98.30;;;;;;5082554;28;19944;-65
2022/07/07 00:13:02;;;;;;;;;;;14.60;97.90;;;;;;5077880;28;20041;-65
2022/07/07 00:15:28;;;;;;;7.28;2.53;;;14.60;97.90;;;;;;5061255;28;19924;-66
2022/07/07 00:17:53;;;;;;;;;;;14.60;98.00;;;;;;5056922;28;20032;-66
2022/07/07 00:20:19;;;;;;;3.60;2.30;;;14.60;98.00;;;;;;5066283;28;19999;-66
2022/07/07 00:22:44;;;;;;;;;;;14.70;97.90;;;;;;5049952;28;20048;-65
2022/07/07 00:25:10;;;;;;;5.80;2.35;;;14.70;98.10;;;;;;5067552;28;19916;-66
2022/07/07 00:27:37;;;;;;;;;;;14.70;98.70;;;;;;5067465;28;20078;-65
2022/07/07 00:30:03;;;;;;;5.13;2.43;;;14.70;98.30;;;;;;5047618;28;19975;-66
2022/07/07 00:32:29;;;;;;;9.13;2.83;;;14.70;98.50;;;;;;5046942;28;20049;-66
2022/07/07 00:34:54;;;;;;;;;;;14.70;98.20;;;;;;5051744;28;20037;-66
2022/07/07 00:37:20;;;;;;;5.40;2.55;;;14.70;98.40;;;;;;5047089;28;20398;-66
2022/07/07 00:39:46;;;;;;;;;;;14.70;98.10;;;;;;5064185;28;20155;-66
2022/07/07 00:42:15;;;;;;;7.10;2.95;;;14.80;98.10;;;;;;5060601;28;19921;-65
2022/07/07 00:44:42;;;;;;;4.53;2.17;;;14.70;98.10;;;;;;5050661;28;20262;-65
2022/07/07 00:47:09;;;;;;;6.70;2.95;;;14.80;98.10;;;;;;5046915;28;20067;-66
2022/07/07 00:49:38;;;;;;;6.78;2.65;;;14.80;98.10;;;;;;5047637;28;20037;-66
2022/07/07 00:52:05;;;;;;;6.88;2.67;;;14.80;98.00;;;;;;5047303;28;20044;-66
2022/07/07 00:54:31;;;;;;;5.47;3.10;;;14.80;98.10;;;;;;5059293;28;20036;-66
2022/07/07 00:56:56;;;;;;;;;;;14.80;98.10;;;;;;5067237;28;20047;-66
2022/07/07 00:59:22;;;;;;;7.65;3.00;;;14.80;98.00;;;;;;5055972;28;20276;-66
2022/07/07 01:01:48;;;;;;;;;;;14.80;98.20;;;;;;5047244;28;20053;-66
2022/07/07 01:04:13;;;;;;;10.18;3.25;;;14.80;98.50;;;;;;5054593;28;20003;-66
2022/07/07 01:06:40;;;;;;;;;;;14.80;98.00;;;;;;5047636;28;20131;-65
2022/07/07 01:09:06;;;;;;;8.73;3.22;;;14.80;98.50;;;;;;5053945;28;20013;-65
2022/07/07 01:11:44;;;;;;;;;;;14.80;98.30;;;;;;5061359;28;20138;-66
2022/07/07 01:14:10;;;;;;;11.57;3.28;;;14.80;98.30;;;;;;5051621;28;19956;-66
2022/07/07 01:16:35;;;;;;;;;;;14.80;98.40;;;;;;5047392;28;20087;-66
2022/07/07 01:19:01;;;;;;;9.50;2.45;;;14.80;98.50;;;;;;5046975;28;20406;-66
2022/07/07 01:21:31;;;;;;;6.20;2.88;;;14.80;98.30;;;;;;5046377;28;20049;-66
2022/07/07 01:23:56;;;;;;;9.30;3.40;;;14.90;98.30;;;;;;5048242;28;20558;-66
2022/07/07 01:26:22;;;;;;;;;;;14.80;98.30;;;;;;5049047;28;20049;-66
2022/07/07 01:28:47;;;;;;;5.85;3.40;;;14.80;98.70;;;;;;5049900;28;19917;-66
2022/07/07 01:31:13;;;;;;;;;;;14.80;98.70;;;;;;5048842;28;20523;-66
2022/07/07 01:33:39;;;;;;;8.57;4.45;;;14.70;99.00;;;;;;5046017;28;19924;-66
2022/07/07 01:36:04;;;;;;;;;;;14.70;99.10;;;;;;5050522;28;20044;-66
2022/07/07 01:38:30;;;;;;;10.65;3.83;;;14.70;99.40;;;;;;5046253;28;19917;-66
2022/07/07 01:40:55;;;;;;;;;;;14.70;99.60;;;;;;5064303;28;20110;-66
2022/07/07 01:43:21;;;;;;;11.55;4.00;;;14.70;99.90;;;;;;5048627;28;19939;-66
2022/07/07 01:45:46;;;;;;;;;;;14.60;99.90;;;;;;5048570;28;20045;-66
2022/07/07 01:48:12;;;;;;;7.60;3.72;;;14.50;99.90;;;;;;5046338;28;19928;-65
2022/07/07 01:50:37;;;;;;;;;;;14.50;99.90;;;;;;5060334;28;20131;-66
2022/07/07 01:53:03;;;;;;;11.43;4.60;;;14.50;99.90;;;;;;5066430;28;19925;-66
2022/07/07 01:55:29;;;;;;;;;;;14.50;99.90;;;;;;5054387;28;20048;-66
2022/07/07 01:57:54;;;;;;;14.82;4.78;;;14.30;99.90;;;;;;5045723;28;19920;-66
2022/07/07 02:00:20;;;;;;;;;;;14.30;99.90;;;;;;5056179;28;20047;-66
2022/07/07 02:02:45;;;;;;;9.57;6.10;;;14.20;99.90;;;;;;5062395;28;20379;-66
2022/07/07 02:05:11;;;;;;;;;;;14.10;99.90;;;;;;5057178;28;20513;-66
2022/07/07 02:07:36;;;;;;;14.80;7.03;;;14.00;99.90;;;;;;5045531;28;19917;-66
2022/07/07 02:10:03;;;;;;;;;;;13.90;99.90;;;;;;5052220;28;20396;-66
2022/07/07 02:12:29;;;;;;;13.45;7.13;;;13.80;99.90;;;;;;5066295;28;19916;-66
2022/07/07 02:14:54;;;;;;;;;;;13.80;99.90;;;;;;5061993;28;20270;-66
2022/07/07 02:17:20;;;;;;;14.23;7.80;;;13.70;99.90;;;;;;5045806;28;19925;-66
2022/07/07 02:19:45;;;;;;;;;;;13.60;99.90;;;;;;5048863;28;20527;-66
2022/07/07 02:22:11;;;;;;;12.52;7.68;;;13.60;99.90;;;;;;5043887;28;20356;-66
2022/07/07 02:24:36;;;;;;;;;;;13.50;99.90;;;;;;5046739;28;20902;-65
2022/07/07 02:27:02;;;;;;;15.77;10.05;;;13.40;99.90;;;;;;5065477;28;20382;-66
2022/07/07 02:29:27;;;;;;;;;;;13.30;99.90;;;;;;5066460;28;20051;-66
2022/07/07 02:31:53;;;;;;;19.48;10.88;;;13.30;99.90;;;;;;5046182;28;19928;-66
2022/07/07 02:34:20;;;;;;;;;;;13.30;99.90;;;;;;5045508;28;20041;-66
2022/07/07 02:36:45;;;;;;;20.40;10.10;;;13.30;99.90;;;;;;5049232;28;19916;-66
2022/07/07 02:39:11;;;;;;;;;;;13.30;99.90;;;;;;5044193;28;20051;-66
2022/07/07 02:41:36;;;;;;;24.92;11.55;;;13.20;99.90;;;;;;5059020;28;19916;-66
2022/07/07 02:44:02;;;;;;;;;;;13.20;99.90;;;;;;5045453;28;20064;-66
2022/07/07 02:46:28;;;;;;;17.42;10.68;;;13.20;99.90;;;;;;5045058;28;19924;-66
2022/07/07 02:48:53;;;;;;;;;;;13.20;99.90;;;;;;5046245;28;20516;-66
2022/07/07 02:51:19;;;;;;;19.00;11.90;;;13.20;99.90;;;;;;5051443;28;20023;-65
2022/07/07 02:53:45;;;;;;;;;;;13.20;99.90;;;;;;5045860;28;20045;-66
2022/07/07 02:56:10;;;;;;;19.10;11.82;;;13.20;99.90;;;;;;5054259;28;19926;-66
2022/07/07 02:58:36;;;;;;;;;;;13.20;99.90;;;;;;5064334;28;20044;-66
2022/07/07 03:01:01;;;;;;;20.33;11.35;;;13.20;99.90;;;;;;5057411;28;20007;-65
2022/07/07 03:03:27;;;;;;;;;;;13.30;99.90;;;;;;5045503;28;20060;-66
2022/07/07 03:05:52;;;;;;;16.40;10.45;;;13.30;99.90;;;;;;5050537;28;20287;-66
2022/07/07 03:08:18;;;;;;;;;;;13.30;99.90;;;;;;5047273;28;20706;-66
2022/07/07 03:10:44;;;;;;;17.20;12.43;;;13.40;99.90;;;;;;5048252;28;19912;-66
2022/07/07 03:13:09;;;;;;;;;;;13.40;99.90;;;;;;5048478;28;20051;-66
2022/07/07 03:15:35;;;;;;;17.58;11.98;;;13.40;99.90;;;;;;5045325;28;19979;-66
2022/07/07 03:18:00;;;;;;;;;;;13.40;99.90;;;;;;5043957;28;20049;-66
2022/07/07 03:20:26;;;;;;;17.98;12.20;;;13.40;99.90;;;;;;5045024;28;19925;-66
2022/07/07 03:22:51;;;;;;;;;;;13.40;99.90;;;;;;5051240;28;20679;-66
2022/07/07 03:25:17;;;;;;;19.65;12.50;;;13.50;99.90;;;;;;5044127;28;19952;-66
2022/07/07 03:27:42;;;;;;;;;;;13.50;99.90;;;;;;5059794;28;20782;-66
2022/07/07 03:30:09;;;;;;;18.55;12.73;;;13.50;99.90;;;;;;5063601;28;19916;-66
2022/07/07 03:32:35;;;;;;;21.38;12.02;;;13.50;99.90;;;;;;5048089;28;20059;-66
2022/07/07 03:35:01;;;;;;;;;;;13.50;99.90;;;;;;5045292;28;20821;-66
2022/07/07 03:37:26;;;;;;;19.15;12.40;;;13.50;99.90;;;;;;5048796;28;19994;-66
2022/07/07 03:39:52;;;;;;;;;;;13.40;99.90;;;;;;5045290;28;20037;-66
2022/07/07 03:42:18;;;;;;;21.35;13.63;;;13.40;99.90;;;;;;5044860;28;19990;-66
2022/07/07 03:44:43;;;;;;;;;;;13.50;99.90;;;;;;5045147;28;20061;-66
2022/07/07 03:47:11;;;;;;;19.23;12.18;;;13.40;99.90;;;;;;5054894;28;19926;-66
2022/07/07 03:49:37;;;;;;;23.90;13.38;;;13.50;99.90;;;;;;5064712;28;20047;-66
2022/07/07 03:52:02;;;;;;;;;;;13.50;99.90;;;;;;5056525;28;20048;-66
2022/07/07 03:54:28;;;;;;;19.67;13.50;;;13.50;99.90;;;;;;5048005;28;19999;-65
2022/07/07 03:56:53;;;;;;;;;;;13.50;99.90;;;;;;5055952;28;20051;-66
2022/07/07 03:59:19;;;;;;;22.73;13.02;;;13.40;99.90;;;;;;5068026;28;19947;-66
2022/07/07 04:01:47;;;;;;;;;;;13.50;99.90;;;;;;5062819;28;20032;-66
2022/07/07 04:04:13;;;;;;;20.00;10.52;;;13.50;99.90;;;;;;5048350;28;19927;-66
2022/07/07 04:06:39;;;;;;;21.92;13.07;;;13.50;99.90;;;;;;5050746;28;20790;-66
2022/07/07 04:09:04;;;;;;;;;;;13.50;99.90;;;;;;5068814;28;20040;-66
2022/07/07 04:11:30;;;;;;;16.27;11.55;;;13.50;99.90;;;;;;5065010;28;19916;-66
2022/07/07 04:13:55;;;;;;;;;;;13.50;99.90;;;;;;5067950;28;20041;-66
2022/07/07 04:16:21;;;;;;;15.18;10.93;;;13.60;99.90;;;;;;5067910;28;19916;-66
2022/07/07 04:18:47;;;;;;;;;;;13.60;99.90;;;;;;5068452;28;20040;-66
2022/07/07 04:21:12;;;;;;;15.63;11.15;;;13.60;99.90;;;;;;5056670;28;19948;-66
2022/07/07 04:23:38;;;;;;;;;;;13.60;99.90;;;;;;5061783;28;20037;-66
2022/07/07 04:26:03;;;;;;;17.08;11.48;;;13.60;99.90;;;;;;5036043;28;19925;-66
2022/07/07 04:28:30;;;;;;;;;;;13.60;99.90;;;;;;5040583;28;20750;-66
2022/07/07 04:30:56;;;;;;;13.13;9.50;;;13.60;99.90;;;;;;5037357;28;20003;-67
2022/07/07 04:33:21;;;;;;;;;;;13.60;99.90;;;;;;5044545;28;20590;-66
2022/07/07 04:35:47;;;;;;;15.20;10.45;;;13.60;99.90;;;;;;5036805;28;20020;-67
2022/07/07 04:38:13;;;;;;;;;;;13.60;99.90;;;;;;5042214;28;20084;-66
2022/07/07 04:40:39;;;;;;;14.00;9.55;;;13.70;99.90;;;;;;5037857;28;20571;-66
2022/07/07 04:43:05;;;;;;;26.23;12.93;;;13.70;99.90;;;;;;5038377;28;20076;-66
2022/07/07 04:45:30;;;;;;;;;;;13.70;99.90;;;;;;5040611;28;20069;-66
2022/07/07 04:47:56;;;;;;;18.02;11.68;;;13.70;99.90;;;;;;5036130;28;20388;-66
2022/07/07 04:50:21;;;;;;;;;;;13.80;99.90;;;;;;5040066;28;20052;-66
2022/07/07 04:52:47;;;;;;;18.67;12.88;;;13.70;99.90;;;;;;5045665;28;19925;-66
2022/07/07 04:55:13;;;;;;;;;;;13.70;99.90;;;;;;5045331;28;20159;-66
2022/07/07 04:57:38;;;;;;;19.52;13.38;;;13.70;99.90;;;;;;5044353;28;19945;-66
2022/07/07 05:00:04;;;;;;;;;;;13.70;99.90;;;;;;5044585;28;20041;-66
2022/07/07 05:02:30;;;;;;;15.13;10.90;;;13.70;99.90;;;;;;5047684;28;19920;-66
2022/07/07 05:04:56;;;;;;;;;;;13.70;99.90;;;;;;5048999;28;20550;-65
2022/07/07 05:07:22;;;;;;;14.93;11.50;;;13.70;99.90;;;;;;5046256;28;20022;-66
2022/07/07 05:09:47;;;;;;;;;;;13.60;99.90;;;;;;5049774;28;20672;-66
2022/07/07 05:12:13;;;;;;;11.30;8.93;;;13.70;99.90;;;;;;5047890;28;19916;-66
2022/07/07 05:14:39;;;;;;;;;;;13.70;99.90;;;;;;5048816;28;20080;-66
2022/07/07 05:17:04;;;;;;;11.10;8.50;;;13.60;99.90;;;;;;5047341;28;19916;-66
2022/07/07 05:19:30;;;;;;;;;;;13.70;99.90;;;;;;5047819;28;20049;-65
2022/07/07 05:21:55;;;;;;;14.43;9.57;;;13.60;99.90;;;;;;5047407;28;19927;-66
2022/07/07 05:24:21;;;;;;;;;;;13.70;99.90;;;;;;5044217;28;20382;-67
2022/07/07 06:37:29;;;;;;;9.75;6.25;;;14.00;99.90;;;;;;5946588;23;20107;-65
2022/07/07 06:39:54;;;;;;;8.93;6.95;;;14.00;99.90;;;;;;4957894;28;20502;-67
2022/07/07 06:42:20;;;;;;;;;;;13.90;99.90;;;;;;4965938;28;20046;-66
2022/07/07 06:44:46;;;;;;;9.98;6.80;;;13.90;99.90;;;;;;4966148;28;19965;-66
2022/07/07 06:47:11;;;;;;;;;;;14.00;99.90;;;;;;4967260;28;20038;-66
2022/07/07 06:49:37;;;;;;;14.43;9.20;;;13.90;99.90;;;;;;4962369;28;19929;-68
2022/07/07 06:52:02;;;;;;;;;;;13.90;99.90;;;;;;4965755;28;20123;-67
2022/07/07 06:54:28;;;;;;;9.32;7.80;;;13.90;99.90;;;;;;4962531;28;19925;-65
2022/07/07 06:56:53;;;;;;;;;;;13.90;99.90;;;;;;4966042;28;20049;-63
2022/07/07 06:59:19;;;;;;;8.90;7.10;;;13.90;99.90;;;;;;4967083;28;19922;-65
2022/07/07 07:01:44;;;;;;;;;;;13.90;99.90;;;;;;4961761;28;20122;-63
2022/07/07 07:04:13;;;;;;;8.32;6.65;;;14.00;99.90;;;;;;4958553;28;19928;-62
2022/07/07 07:06:40;;;;;;;8.95;6.85;;;14.00;99.90;;;;;;4958212;28;20042;-64
2022/07/07 07:09:05;;;;;;;9.38;6.43;;;14.00;99.90;;;;;;4964715;28;20083;-64
2022/07/07 07:11:31;;;;;;;;;;;14.00;99.90;;;;;;4982032;28;20078;-64
2022/07/07 07:13:58;;;;;;;8.63;5.80;;;14.10;99.90;;;;;;4966892;28;19918;-63
2022/07/07 07:16:24;;;;;;;5.88;4.80;;;14.20;99.90;;;;;;4965658;28;20043;-66
2022/07/07 07:18:50;;;;;;;;;;;14.20;99.90;;;;;;4966312;28;20043;-66
2022/07/07 07:21:16;;;;;;;3.88;3.30;;;14.20;99.90;;;;;;4966880;28;19921;-63
2022/07/07 07:23:41;;;;;;;;;;;14.20;99.90;;;;;;4967168;28;20081;-64
2022/07/07 07:26:08;;;;;;;3.25;2.08;;;14.20;99.90;;;;;;4965684;28;19922;-67
2022/07/07 07:28:34;;;;;;;3.33;1.75;;;14.20;99.90;;;;;;4968820;28;20042;-67
2022/07/07 07:31:01;;;;;;;4.35;1.85;;;14.30;99.90;;;;;;4969010;28;20133;-67
2022/07/07 07:33:28;;;;;;;3.15;2.10;;;14.30;99.90;;;;;;4984947;28;20050;-67
2022/07/07 07:35:55;;;;;;;4.30;1.67;;;14.30;99.90;;;;;;4970496;28;20122;-67
2022/07/07 07:38:21;;;;;;;4.82;2.47;;;14.30;99.90;;;;;;4966273;28;20051;-67
2022/07/07 07:40:46;;;;;;;;;;;14.20;99.90;;;;;;4970306;28;20058;-67
2022/07/07 07:43:12;;;;;;;2.50;2.00;;;14.20;99.90;;;;;;4970143;28;19918;-67
2022/07/07 07:45:38;;;;;;;;;;;14.20;99.90;;;;;;4971230;28;20577;-66
2022/07/07 07:48:04;;;;;;;3.08;1.80;;;14.10;99.90;;;;;;4969797;28;20001;-66
2022/07/07 07:50:31;;;;;;;3.70;1.58;;;14.30;99.90;;;;;;4967791;28;20097;-67
2022/07/07 07:52:57;;;;;;;3.85;1.95;;;14.20;99.90;;;;;;4969846;28;20473;-67
2022/07/07 07:55:23;;;;;;;4.40;1.85;;;14.40;99.90;;;;;;4970552;28;20053;-66
2022/07/07 07:57:49;;;;;;;;;;;14.50;99.90;;;;;;4968358;28;20457;-65
2022/07/07 08:00:18;;;;;;;2.58;1.67;;;14.50;99.90;;;;;;4968016;28;20013;-66
2022/07/07 08:02:45;;;;;;;3.22;1.80;;;14.50;99.90;;;;;;4967940;28;20093;-66
2022/07/07 08:05:11;;;;;;;1.88;1.52;;;14.60;99.90;;;;;;4970739;28;20066;-66
2022/07/07 08:07:37;;;;;;;2.08;1.80;;;14.60;99.90;;;;;;4963411;28;20044;-65
2022/07/07 08:10:04;;;;;;;4.15;2.25;;;14.60;99.90;;;;;;4967103;28;20039;-66
2022/07/07 08:12:29;;;;;;;2.95;2.25;;;14.70;99.90;;;;;;4983485;28;20061;-65
2022/07/07 08:14:55;;;;;;;;;;;14.70;99.90;;;;;;5005659;28;20046;-65
2022/07/07 08:17:21;;;;;;;3.15;2.20;;;14.70;99.90;;;;;;4974335;28;20416;-65
2022/07/07 08:19:46;;;;;;;;;;;14.70;99.90;;;;;;4971128;28;20031;-65
2022/07/07 08:22:12;;;;;;;2.20;1.98;;;14.60;99.90;;;;;;4984917;28;19921;-65
2022/07/07 08:24:39;;;;;;;;;;;14.60;99.90;;;;;;4990533;28;20113;-65
2022/07/07 08:27:05;;;;;;;2.15;1.63;;;14.60;99.90;;;;;;4978191;28;19918;-66
2022/07/07 08:29:30;;;;;;;2.28;1.75;;;14.60;99.90;;;;;;4970286;28;20050;-65
2022/07/07 08:31:56;;;;;;;;;;;14.50;99.90;;;;;;4970286;28;20047;-66
2022/07/07 08:34:23;;;;;;;2.10;1.90;;;14.40;99.90;;;;;;4953186;28;20185;-66
2022/07/07 08:36:49;;;;;;;2.30;1.38;;;14.40;99.90;;;;;;4968726;28;20114;-66
2022/07/07 08:39:15;;;;;;;2.20;1.77;;;14.40;99.90;;;;;;4969296;28;20481;-66
2022/07/07 08:41:42;;;;;;;;;;;14.40;99.90;;;;;;4970124;28;20063;-65
2022/07/07 08:44:08;;;;;;;1.30;1.20;;;14.50;99.90;;;;;;4969591;28;20020;-66
2022/07/07 08:46:34;;;;;;;1.35;0.90;;;14.50;99.90;;;;;;4966471;28;20051;-65
2022/07/07 08:49:00;;;;;;;;;;;14.50;99.90;;;;;;4962917;28;20097;-66
2022/07/07 08:51:26;;;;;;;2.88;0.90;;;14.50;99.90;;;;;;4969428;28;20427;-67
2022/07/07 08:53:51;;;;;;;;;;;14.50;99.90;;;;;;4969667;28;20053;-66
2022/07/07 08:56:19;;;;;;;1.73;0.60;;;14.50;99.90;;;;;;4969668;28;20008;-67
2022/07/07 08:58:45;;;;;;;0.40;0.40;;;14.40;99.90;;;;;;4969284;28;20049;-66
2022/07/07 09:01:12;;;;;;;0.93;0.32;;;14.30;99.90;;;;;;4983112;28;20598;-66
2022/07/07 09:03:38;;;;;;;0.75;0.40;;;14.30;99.90;;;;;;4949658;29;20047;-66
2022/07/07 09:06:04;;;;;;;0.40;0.30;;;14.30;99.90;;;;;;4963167;28;20039;-67
2022/07/07 09:08:30;;;;;;;;;;;14.20;99.90;;;;;;4950425;29;20430;-66
2022/07/07 09:10:57;;;;;;;1.80;0.43;;;14.30;99.90;;;;;;4950076;28;19934;-66
2022/07/07 09:13:32;;;;;;;1.05;0.40;;;14.30;99.90;;;;;;4950568;29;20503;-66
2022/07/07 09:16:04;;;;;;;0.20;0.20;;;14.30;99.90;;;;;;4932710;29;20537;-66
2022/07/07 09:18:36;;;;;;;0.20;0.20;;;14.20;99.90;;;;;;4949650;28;20075;-66
2022/07/07 09:21:05;;;;;;;0.90;0.35;;;14.20;99.90;;;;;;4964763;28;20115;-66
2022/07/07 09:23:32;;;;;;;2.47;0.47;;;14.10;99.90;;;;;;4950121;28;20522;-67
2022/07/07 09:26:00;;;;;;;1.10;0.35;;;14.20;99.90;;;;;;4949207;29;20055;-66
2022/07/07 09:28:27;;;;;;;1.92;0.45;;;14.10;99.90;;;;;;4949867;28;20078;-67
2022/07/07 09:30:54;;;;;;;1.50;0.40;;;14.10;99.90;;;;;;4951738;28;20047;-66
2022/07/07 09:33:25;;;;;;;3.50;0.40;;;14.20;99.90;;;;;;4969686;28;20126;-67
2022/07/07 09:38:38;;;;;;;;;;;14.20;99.90;;;;;;4969266;28;20526;-66
2022/07/07 09:41:15;;;;;;;0.77;0.70;;;14.20;99.90;;;;;;4969009;28;19918;-66
2022/07/07 09:43:46;;;;;;;0.77;0.77;;;14.30;99.90;;;;;;4968462;28;20854;-66
2022/07/07 09:46:18;;;;;;;4.60;0.95;;;14.30;99.90;;;;;;4983221;28;20058;-66
2022/07/07 09:48:46;;;;;;;3.53;1.40;;;14.20;99.90;;;;;;4968814;28;20047;-66
2022/07/07 09:51:22;;;;;;;4.72;1.17;;;14.20;99.90;;;;;;4968331;28;20062;-67
2022/07/07 09:54:06;;;;;;;6.15;1.17;;;14.20;99.90;;;;;;4968361;28;20074;-67
2022/07/07 09:56:38;;;;;;;6.90;1.88;;;14.30;99.90;;;;;;4982906;28;20093;-67
2022/07/07 09:59:12;;;;;;;7.88;1.85;;;14.30;99.90;;;;;;4968766;28;20046;-67
2022/07/07 10:01:40;;;;;;;3.03;1.30;;;14.30;99.90;;;;;;4969073;28;20125;-67
2022/07/07 10:04:08;;;;;;;7.88;1.50;;;14.30;99.90;;;;;;4924148;28;20043;-67
2022/07/07 10:06:37;;;;;;;6.35;1.10;;;14.20;99.90;;;;;;4931376;29;20052;-66
2022/07/07 10:09:09;;;;;;;2.60;1.33;;;14.20;99.90;;;;;;4938795;29;20054;-66
2022/07/07 10:11:40;;;;;;;2.45;1.15;;;14.20;99.90;;;;;;4948210;28;20529;-66
2022/07/07 10:14:13;;;;;;;3.22;1.60;;;14.10;99.90;;;;;;4946499;29;20047;-66
2022/07/07 10:16:40;;;;;;;2.67;0.80;;;14.10;99.90;;;;;;4948464;28;20047;-66
2022/07/07 10:19:08;;;;;;;1.63;0.82;;;14.20;99.90;;;;;;4946497;29;20039;-66
2022/07/07 10:21:34;;;;;;;4.13;1.30;;;14.30;99.90;;;;;;4946482;28;20043;-66
2022/07/07 10:23:59;;;;;;;;;;;14.40;99.90;;;;;;4956751;28;20046;-66
2022/07/07 10:26:39;;;;;;;3.85;1.38;;;14.50;99.90;;;;;;4947533;28;19922;-66
2022/07/07 10:29:06;;;;;;;3.70;1.60;;;14.50;99.90;;;;;;4949560;28;20109;-67
2022/07/07 10:31:33;;;;;;;6.20;1.80;;;14.60;99.90;;;;;;4954874;28;20138;-68
2022/07/07 10:34:08;;;;;;;5.75;1.63;;;14.70;99.90;;;;;;4948728;28;20097;-64
2022/07/07 10:37:10;;;;;;;4.82;1.52;;;14.70;99.90;;;;;;4947991;28;20051;-66
2022/07/07 10:39:40;;;;;;;7.57;2.00;;;14.70;99.90;;;;;;4944058;29;20091;-66
2022/07/07 10:42:15;;;;;;;3.55;1.58;;;14.70;99.90;;;;;;4950275;28;20043;-66
2022/07/07 10:44:44;;;;;;;10.18;1.20;;;14.70;99.90;;;;;;4949637;28;20039;-66
2022/07/07 10:47:12;;;;;;;9.40;1.88;;;14.70;99.90;;;;;;4949442;28;20098;-66
2022/07/07 10:49:46;;;;;;;4.40;1.73;;;14.70;99.90;;;;;;4950007;28;20071;-65
2022/07/07 10:52:21;;;;;;;4.82;1.40;;;14.80;99.90;;;;;;4953928;28;20038;-67
2022/07/07 10:54:55;;;;;;;1.88;0.90;;;14.80;99.90;;;;;;4948173;28;20506;-66
2022/07/07 10:57:29;;;;;;;4.03;1.20;;;14.80;99.90;;;;;;4947393;28;20156;-69
2022/07/07 11:00:08;;;;;;;3.55;1.35;;;14.90;99.90;;;;;;4948488;28;20062;-69
2022/07/07 11:02:38;;;;;;;8.73;2.00;;;15.00;99.90;;;;;;4946899;28;20125;-70
2022/07/07 11:05:28;;;;;;;2.25;1.00;;;15.00;99.90;;;;;;4948058;28;20507;-66
2022/07/07 11:07:56;;;;;;;5.60;1.30;;;15.00;99.90;;;;;;4942644;28;20062;-66
2022/07/07 11:10:42;;;;;;;7.53;1.52;;;15.10;99.90;;;;;;4953596;28;20167;-67
2022/07/07 11:13:21;;;;;;;3.50;1.40;;;15.20;99.90;;;;;;4953275;28;20089;-67
2022/07/07 11:16:05;;;;;;;4.10;1.70;;;15.50;99.90;;;;;;4963458;28;20047;-65
2022/07/07 11:18:34;;;;;;;5.50;1.38;;;15.80;99.90;;;;;;4953003;28;20544;-66
2022/07/07 11:21:02;;;;;;;5.22;1.40;;;15.90;99.90;;;;;;4967524;28;20605;-65
2022/07/07 11:23:42;;;;;;;2.63;1.13;;;16.00;99.90;;;;;;4949863;28;20658;-65
2022/07/07 11:26:08;;;;;;;3.92;0.98;;;16.00;99.90;;;;;;4949279;28;20046;-66
2022/07/07 11:28:35;;;;;;;;;;;16.00;99.90;;;;;;4949491;28;20051;-65
2022/07/07 11:31:07;;;;;;;8.75;1.08;;;15.90;99.90;;;;;;4948908;28;19918;-65
2022/07/07 11:33:33;;;;;;;5.00;1.30;;;15.70;99.90;;;;;;4949790;28;20050;-66
2022/07/07 11:36:07;;;;;;;4.57;1.17;;;15.70;99.90;;;;;;4948787;28;20071;-65
2022/07/07 11:38:32;;;;;;;6.75;1.33;;;15.60;99.90;;;;;;4948809;28;20083;-66
2022/07/07 11:40:58;;;;;;;;;;;15.50;99.90;;;;;;4949368;28;20770;-66
2022/07/07 11:43:25;;;;;;;3.67;1.40;;;15.40;99.90;;;;;;4948379;29;20037;-65
2022/07/07 11:45:50;;;;;;;5.65;1.52;;;15.10;99.90;;;;;;4947824;29;20050;-66
2022/07/07 11:48:16;;;;;;;;;;;15.10;99.90;;;;;;4947324;28;20411;-66
2022/07/07 11:50:42;;;;;;;2.35;1.10;;;15.30;99.90;;;;;;4947684;29;19923;-65
2022/07/07 11:53:08;;;;;;;4.72;1.40;;;15.30;99.90;;;;;;4947849;29;20043;-65
2022/07/07 11:55:33;;;;;;;;;;;15.50;99.90;;;;;;4947833;29;20047;-66
2022/07/07 11:58:03;;;;;;;4.60;1.27;;;15.70;99.90;;;;;;4947054;28;20501;-66
2022/07/07 12:00:39;;;;;;;4.65;1.33;;;15.60;99.90;;;;;;4944651;28;20078;-63
2022/07/07 12:03:06;;;;;;;;;;;15.70;99.90;;;;;;4938986;29;20046;-63
2022/07/07 12:05:46;;;;;;;3.42;1.50;;;15.70;99.90;;;;;;4946344;29;19933;-65
2022/07/07 12:08:13;;;;;;;9.50;1.77;;;15.70;99.90;;;;;;4945228;29;20098;-61
2022/07/07 12:10:41;;;;;;;5.70;1.33;;;15.80;99.90;;;;;;4947392;28;20048;-65
2022/07/07 12:13:10;;;;;;;4.68;1.35;;;16.00;99.90;;;;;;4947571;28;20383;-65
2022/07/07 12:15:40;;;;;;;5.78;1.70;;;16.30;99.90;;;;;;4950872;28;20053;-65
2022/07/07 12:18:07;;;;;;;5.95;1.33;;;16.50;99.90;;;;;;4951592;28;20487;-65
2022/07/07 12:20:34;;;;;;;3.63;1.38;;;16.60;99.90;;;;;;4949820;29;20043;-65
2022/07/07 12:23:03;;;;;;;4.53;1.60;;;16.50;99.90;;;;;;4951975;28;20051;-65
2022/07/07 12:25:34;;;;;;;4.97;1.63;;;16.30;99.90;;;;;;4951398;28;20384;-65
2022/07/07 12:28:02;;;;;;;2.85;1.95;;;16.20;99.90;;;;;;4950574;28;20465;-65
2022/07/07 12:30:30;;;;;;;6.50;1.67;;;16.10;99.90;;;;;;4950280;28;20132;-65
2022/07/07 12:32:56;;;;;;;8.05;2.03;;;16.00;99.90;;;;;;4951530;28;20039;-65
2022/07/07 12:35:40;;;;;;;;;;;16.00;99.90;;;;;;4950912;29;20039;-65
2022/07/07 12:38:10;;;;;;;3.80;1.58;;;16.00;99.90;;;;;;4951294;28;19922;-64
2022/07/07 12:40:39;;;;;;;3.30;1.35;;;15.80;99.90;;;;;;4950333;28;20051;-64
2022/07/07 12:43:10;;;;;;;7.72;1.38;;;15.80;99.90;;;;;;4944952;29;20180;-65
2022/07/07 12:45:36;;;;;;;3.28;1.20;;;15.80;99.90;;;;;;4950690;28;20067;-64
2022/07/07 12:48:01;;;;;;;;;;;15.70;99.90;;;;;;4951065;29;20110;-65
2022/07/07 12:50:27;;;;;;;5.03;1.20;;;15.50;99.90;;;;;;4950942;29;20077;-64
2022/07/07 12:53:00;;;;;;;3.90;1.23;;;15.40;99.90;;;;;;4950920;28;20407;-65
2022/07/07 12:55:52;;;;;;;6.75;1.55;;;15.50;99.90;;;;;;4950910;28;20043;-64
2022/07/07 12:58:17;;;;;;;5.22;1.30;;;15.40;99.90;;;;;;4944578;29;20531;-65
2022/07/07 13:00:55;;;;;;;;;;;15.40;99.90;;;;;;4950129;28;20047;-65
2022/07/07 13:03:20;;;;;;;2.60;1.67;;;15.50;99.90;;;;;;4950566;29;19925;-65
2022/07/07 13:05:47;;;;;;;2.30;1.10;;;15.50;99.90;;;;;;4946174;28;20043;-67
2022/07/07 13:08:13;;;;;;;3.88;1.60;;;15.60;99.90;;;;;;4950578;28;20051;-65
2022/07/07 13:10:39;;;;;;;;;;;15.70;99.90;;;;;;4951224;28;20035;-66
2022/07/07 13:13:04;;;;;;;3.42;1.20;;;15.80;99.90;;;;;;4941154;28;19922;-66
2022/07/07 13:15:30;;;;;;;;;;;15.90;99.90;;;;;;4944200;29;20404;-65
2022/07/07 13:17:56;;;;;;;3.95;1.75;;;15.70;99.90;;;;;;4947132;28;19926;-65
2022/07/07 13:20:22;;;;;;;;;;;15.70;99.90;;;;;;4945981;29;20055;-65
2022/07/07 13:22:47;;;;;;;4.93;1.58;;;15.60;99.90;;;;;;4962515;28;19949;-65
2022/07/07 13:25:13;;;;;;;;;;;15.50;99.90;;;;;;4947197;28;20043;-65
2022/07/07 13:27:39;;;;;;;6.03;1.25;;;15.50;99.90;;;;;;4944812;28;20552;-65
2022/07/07 13:30:04;;;;;;;;;;;15.50;99.90;;;;;;4949476;28;20045;-65
2022/07/07 13:32:30;;;;;;;6.70;1.40;;;15.50;99.90;;;;;;4944799;28;19922;-65
2022/07/07 13:34:56;;;;;;;;;;;15.60;99.90;;;;;;4941922;28;20583;-65
2022/07/07 13:37:21;;;;;;;3.90;1.17;;;15.70;99.90;;;;;;4947917;29;19933;-65
2022/07/07 13:39:48;;;;;;;;;;;15.80;99.90;;;;;;4948647;29;20035;-65
2022/07/07 13:42:14;;;;;;;3.58;1.77;;;15.70;99.90;;;;;;4941085;29;19919;-65
2022/07/07 13:44:41;;;;;;;6.15;1.70;;;15.50;99.90;;;;;;4943691;29;20662;-65
2022/07/07 13:47:07;;;;;;;1.60;1.00;;;15.30;99.90;;;;;;4934101;28;20410;-66
2022/07/07 13:49:34;;;;;;;0.88;0.68;;;15.10;99.90;;;;;;4949366;28;20739;-65
2022/07/07 13:52:00;;;;;;;2.60;0.85;;;15.10;99.90;;;;;;4949537;28;20075;-65
2022/07/07 13:54:31;;;;;;;;;;;15.10;99.90;;;;;;4949849;28;20768;-65
2022/07/07 13:56:56;;;;;;;4.20;0.93;;;15.00;99.90;;;;;;4949627;28;19949;-65
2022/07/07 13:59:22;;;;;;;;;;;15.00;99.90;;;;;;4950571;28;20643;-65
2022/07/07 14:01:48;;;;;;;1.05;0.77;;;14.90;99.90;;;;;;4949075;28;20294;-65
2022/07/07 14:04:13;;;;;;;;;;;14.90;99.90;;;;;;4950023;28;20046;-65
2022/07/07 14:06:39;;;;;;;1.67;1.35;;;14.90;99.90;;;;;;4950148;28;19958;-65
2022/07/07 14:09:04;;;;;;;0.93;0.70;;;15.00;99.90;;;;;;4949680;28;20046;-65
2022/07/07 14:11:30;;;;;;;3.47;0.70;;;15.10;99.90;;;;;;4949629;28;20049;-65
2022/07/07 14:13:56;;;;;;;;;;;15.20;99.90;;;;;;4950058;28;20122;-65
2022/07/07 14:16:21;;;;;;;2.70;0.98;;;15.10;99.90;;;;;;4946930;29;20403;-65
2022/07/07 14:18:47;;;;;;;;;;;15.20;99.90;;;;;;4950639;28;20047;-65
2022/07/07 14:21:13;;;;;;;3.63;1.42;;;15.30;99.90;;;;;;4949413;28;19918;-66
2022/07/07 14:23:38;;;;;;;;;;;15.30;99.90;;;;;;4950400;28;20043;-66